createdAt,value
2023-01-13T00:03:25.503Z,99196.23
2023-01-13T00:07:23.378Z,99193.24
2023-01-13T00:11:21.313Z,99200.74
2023-01-13T00:15:21.242Z,99198.33
2023-01-13T00:19:19.280Z,99203.14
2023-01-13T00:23:17.255Z,99202.50
2023-01-13T00:27:15.273Z,99199.09
2023-01-13T00:31:23.285Z,99196.06
2023-01-13T00:35:21.298Z,99195.12
2023-01-13T00:39:19.188Z,99198.63
2023-01-13T00:43:37.302Z,99196.02
2023-01-13T00:47:35.510Z,99195.14
2023-01-13T00:51:36.222Z,99196.17
2023-01-13T00:55:34.240Z,99196.34
2023-01-13T00:59:32.205Z,99198.09
2023-01-13T01:03:30.343Z,99195.63
2023-01-13T01:07:28.231Z,99192.31
2023-01-13T01:11:30.235Z,99189.23
2023-01-13T01:15:28.183Z,99185.16
2023-01-13T01:19:26.144Z,99181.88
2023-01-13T01:23:24.212Z,99186.93
2023-01-13T01:27:22.149Z,99184.40
2023-01-13T01:31:38.189Z,99176.73
2023-01-13T01:35:36.160Z,99169.70
2023-01-13T01:39:34.140Z,99169.00
2023-01-13T01:43:53.232Z,99164.41
2023-01-13T01:47:51.200Z,99158.65
2023-01-13T01:52:01.122Z,99158.81
2023-01-13T01:55:59.164Z,99156.52
2023-01-13T01:59:57.108Z,99150.67
2023-01-13T02:04:12.101Z,99141.85
2023-01-13T02:08:12.085Z,99134.94
2023-01-13T02:12:27.144Z,99130.67
2023-01-13T02:16:32.163Z,99126.15
2023-01-13T02:20:48.207Z,99126.45
2023-01-13T02:25:04.110Z,99120.39
2023-01-13T02:29:41.093Z,99114.83
2023-01-13T02:33:56.062Z,99116.76
2023-01-13T02:37:58.060Z,99116.29
2023-01-13T02:42:23.092Z,99116.06
2023-01-13T02:46:31.080Z,99112.20
2023-01-13T02:50:33.052Z,99108.11
2023-01-13T02:54:37.026Z,99104.13
2023-01-13T02:58:40.076Z,99098.43
2023-01-13T03:02:40.140Z,99092.25
2023-01-13T03:06:52.050Z,99086.69
2023-01-13T03:11:09.128Z,99081.08
2023-01-13T03:15:33.118Z,99076.14
2023-01-13T03:19:52.036Z,99070.99
2023-01-13T03:23:59.083Z,99067.07
2023-01-13T03:28:09.060Z,99070.81
2023-01-13T03:32:14.080Z,99072.33
2023-01-13T03:36:17.075Z,99075.40
2023-01-13T03:40:21.106Z,99077.53
2023-01-13T03:44:32.797Z,99071.89
2023-01-13T03:48:34.973Z,99070.85
2023-01-13T03:52:43.080Z,99069.85
2023-01-13T03:56:56.963Z,99068.52
2023-01-13T04:01:05.027Z,99059.94
2023-01-13T04:05:12.954Z,99059.63
2023-01-13T04:09:19.036Z,99052.39
2023-01-13T04:13:22.953Z,99053.72
2023-01-13T04:17:20.940Z,99052.90
2023-01-13T04:21:19.941Z,99048.46
2023-01-13T04:25:18.025Z,99052.40
2023-01-13T04:29:15.961Z,99051.64
2023-01-13T04:33:13.944Z,99049.77
2023-01-13T04:37:11.940Z,99050.16
2023-01-13T04:41:09.887Z,99055.39
2023-01-13T04:45:07.921Z,99053.23
2023-01-13T04:49:05.897Z,99052.14
2023-01-13T04:53:08.989Z,99048.16
2023-01-13T04:57:06.974Z,99046.19
2023-01-13T05:01:05.878Z,99042.40
2023-01-13T05:05:03.876Z,99044.11
2023-01-13T05:09:01.931Z,99041.34
2023-01-13T05:13:17.949Z,99039.02
2023-01-13T05:17:15.908Z,99043.60
2023-01-13T05:21:33.884Z,99041.14
2023-01-13T05:25:32.832Z,99044.82
2023-01-13T05:29:32.966Z,99043.61
2023-01-13T05:33:34.996Z,99046.66
2023-01-13T05:37:33.870Z,99048.00
2023-01-13T05:41:48.837Z,99046.66
2023-01-13T05:45:46.915Z,99044.98
2023-01-13T05:49:44.904Z,99045.48
2023-01-13T05:53:42.830Z,99043.72
2023-01-13T05:57:40.853Z,99043.67
2023-01-13T06:01:38.832Z,99047.57
2023-01-13T06:05:36.812Z,99050.49
2023-01-13T06:09:34.771Z,99053.27
2023-01-13T06:13:34.815Z,99054.39
2023-01-13T06:17:32.897Z,99053.99
2023-01-13T06:21:33.041Z,99055.02
2023-01-13T06:26:10.842Z,99050.48
2023-01-13T06:30:08.761Z,99055.34
2023-01-13T06:34:21.852Z,99053.15
2023-01-13T06:38:23.750Z,99056.87
2023-01-13T06:42:39.017Z,99053.87
2023-01-13T06:46:16.326Z,99051.61
2023-01-13T06:49:40.417Z,99055.86
2023-01-13T06:53:06.821Z,99052.94
2023-01-13T06:56:30.710Z,99058.87
2023-01-13T06:59:55.456Z,99063.34
2023-01-13T07:03:20.305Z,99055.89
2023-01-13T07:06:44.195Z,99059.69
2023-01-13T07:10:10.006Z,99059.61
2023-01-13T07:13:54.294Z,99063.58
2023-01-13T07:17:25.506Z,99062.25
2023-01-13T07:20:57.059Z,99063.10
2023-01-13T07:24:22.548Z,99060.83
2023-01-13T07:27:46.594Z,99062.17
2023-01-13T07:31:28.811Z,99064.23
2023-01-13T07:34:52.735Z,99063.70
2023-01-13T07:38:17.261Z,99067.58
2023-01-13T07:41:57.658Z,99062.66
2023-01-13T07:45:21.679Z,99063.56
2023-01-13T07:48:45.743Z,99070.70
2023-01-13T07:52:09.979Z,99068.64
2023-01-13T07:55:34.180Z,99065.90
2023-01-13T07:59:00.709Z,99064.85
2023-01-13T08:02:24.920Z,99066.45
2023-01-13T08:05:49.645Z,99068.01
2023-01-13T08:09:13.676Z,99075.23
2023-01-13T08:12:56.926Z,99071.71
2023-01-13T08:16:21.090Z,99078.20
2023-01-13T08:19:45.086Z,99076.83
2023-01-13T08:23:09.033Z,99078.84
2023-01-13T08:26:32.903Z,99081.06
2023-01-13T08:29:57.229Z,99081.56
2023-01-13T08:33:21.452Z,99078.03
2023-01-13T08:36:45.402Z,99078.34
2023-01-13T08:40:10.040Z,99078.59
2023-01-13T08:43:34.185Z,99080.45
2023-01-13T08:46:58.983Z,99079.27
2023-01-13T08:50:23.076Z,99078.73
2023-01-13T08:53:47.116Z,99076.09
2023-01-13T08:57:11.122Z,99076.36
2023-01-13T09:00:35.333Z,99076.33
2023-01-13T09:03:59.389Z,99074.35
2023-01-13T09:07:23.384Z,99076.38
2023-01-13T09:10:47.263Z,99073.67
2023-01-13T09:14:11.159Z,99068.04
2023-01-13T09:17:35.175Z,99060.27
2023-01-13T09:21:00.189Z,99055.37
2023-01-13T09:24:25.197Z,99059.95
2023-01-13T09:27:49.070Z,99056.61
2023-01-13T09:31:12.974Z,99054.44
2023-01-13T09:34:54.605Z,99055.64
2023-01-13T09:38:18.467Z,99050.55
2023-01-13T09:42:02.863Z,99048.87
2023-01-13T09:45:52.416Z,99040.60
2023-01-13T09:49:23.094Z,99048.36
2023-01-13T09:52:47.075Z,99041.95
2023-01-13T09:56:12.308Z,99034.33
2023-01-13T09:59:37.013Z,99037.09
2023-01-13T10:03:30.702Z,99034.75
2023-01-13T10:07:00.078Z,99030.29
2023-01-13T10:10:38.161Z,99031.66
2023-01-13T10:14:16.322Z,99031.23
2023-01-13T10:17:44.129Z,99026.90
2023-01-13T10:22:00.333Z,99022.81
2023-01-13T10:25:52.130Z,99013.86
2023-01-13T10:29:26.214Z,99008.78
2023-01-13T10:32:57.413Z,99007.95
2023-01-13T10:36:23.178Z,99001.11
2023-01-13T10:39:48.232Z,98998.68
2023-01-13T10:43:12.253Z,99002.02
2023-01-13T10:46:53.240Z,98997.31
2023-01-13T10:50:17.178Z,98993.14
2023-01-13T10:53:56.042Z,98991.77
2023-01-13T10:57:22.808Z,98992.04
2023-01-13T11:00:47.926Z,98990.95
2023-01-13T11:04:27.922Z,98988.84
2023-01-13T11:07:56.474Z,98988.05
2023-01-13T11:11:41.075Z,98986.05
2023-01-13T11:15:11.031Z,98981.13
2023-01-13T11:18:34.889Z,98978.48
2023-01-13T11:22:18.580Z,98976.64
2023-01-13T11:25:46.061Z,98971.98
2023-01-13T11:29:21.797Z,98971.81
2023-01-13T11:33:18.623Z,98974.05
2023-01-13T11:36:47.521Z,98976.14
2023-01-13T11:40:37.620Z,98973.15
2023-01-13T11:44:19.964Z,98971.29
2023-01-13T11:47:46.893Z,98968.90
2023-01-13T11:51:44.556Z,98970.39
2023-01-13T11:55:17.240Z,98967.79
2023-01-13T11:58:59.316Z,98966.89
2023-01-13T12:02:33.550Z,98961.71
2023-01-13T12:06:36.000Z,98966.08
2023-01-13T12:10:13.262Z,98964.08
2023-01-13T12:13:52.377Z,98960.53
2023-01-13T12:17:28.698Z,98961.54
2023-01-13T12:21:21.851Z,98953.30
2023-01-13T12:25:25.410Z,98952.05
2023-01-13T12:29:19.442Z,98946.97
2023-01-13T12:32:47.728Z,98951.18
2023-01-13T12:36:30.287Z,98949.76
2023-01-13T12:40:05.365Z,98947.73
2023-01-13T12:43:46.978Z,98948.11
2023-01-13T12:47:35.501Z,98948.48
2023-01-13T12:51:01.739Z,98949.88
2023-01-13T12:54:54.922Z,98952.48
2023-01-13T12:58:25.651Z,98956.19
2023-01-13T13:02:11.352Z,98958.14
2023-01-13T13:05:46.091Z,98960.13
2023-01-13T13:09:29.568Z,98955.03
2023-01-13T13:13:12.974Z,98952.66
2023-01-13T13:16:51.797Z,98950.66
2023-01-13T13:20:55.284Z,98950.52
2023-01-13T13:24:19.446Z,98954.56
2023-01-13T13:28:07.328Z,98949.77
2023-01-13T13:31:46.293Z,98949.90
2023-01-13T13:35:44.023Z,98954.86
2023-01-13T13:39:45.295Z,98954.54
2023-01-13T13:43:31.383Z,98954.13
2023-01-13T13:47:00.369Z,98949.27
2023-01-13T13:50:24.472Z,98950.92
2023-01-13T13:53:48.958Z,98953.58
2023-01-13T13:57:19.119Z,98954.11
2023-01-13T14:00:49.158Z,98956.04
2023-01-13T14:04:23.254Z,98949.81
2023-01-13T14:07:50.156Z,98952.25
2023-01-13T14:11:42.275Z,98955.36
2023-01-13T14:15:06.673Z,98958.34
2023-01-13T14:18:34.764Z,98953.81
2023-01-13T14:22:01.964Z,98955.51
2023-01-13T14:25:33.668Z,98955.02
2023-01-13T14:29:02.913Z,98956.14
2023-01-13T14:32:52.147Z,98952.63
2023-01-13T14:36:54.055Z,98949.75
2023-01-13T14:40:53.053Z,98955.14
2023-01-13T14:44:51.050Z,98951.35
2023-01-13T14:48:54.070Z,98952.20
2023-01-13T14:53:07.057Z,98952.70
2023-01-13T14:57:07.041Z,98951.34
2023-01-13T15:01:06.058Z,98953.02
2023-01-13T15:05:06.140Z,98949.50
2023-01-13T15:09:04.015Z,98951.38
2023-01-13T15:13:05.987Z,98952.94
2023-01-13T15:17:03.978Z,98952.89
2023-01-13T15:21:02.056Z,98957.93
2023-01-13T15:25:05.070Z,98954.71
2023-01-13T15:29:04.031Z,98954.56
2023-01-13T15:33:02.083Z,98957.17
2023-01-13T15:37:02.132Z,98957.46
2023-01-13T15:41:01.991Z,98958.61
2023-01-13T15:45:18.087Z,98962.52
2023-01-13T15:49:19.969Z,98961.55
2023-01-13T15:53:18.041Z,98963.05
2023-01-13T15:57:16.007Z,98963.82
2023-01-13T16:01:14.091Z,98960.09
2023-01-13T16:05:11.909Z,98966.83
2023-01-13T16:09:09.962Z,98965.66
2023-01-13T16:13:11.321Z,98967.27
2023-01-13T16:17:08.984Z,98965.40
2023-01-13T16:21:07.907Z,98967.07
2023-01-13T16:25:05.981Z,98966.63
2023-01-13T16:29:04.998Z,98970.64
2023-01-13T16:33:03.037Z,98972.20
2023-01-13T16:37:00.945Z,98971.91
2023-01-13T16:40:59.098Z,98971.04
2023-01-13T16:44:56.932Z,98970.75
2023-01-13T16:48:55.134Z,98971.21
2023-01-13T16:52:53.041Z,98965.60
2023-01-13T16:56:51.003Z,98964.20
2023-01-13T17:00:49.025Z,98964.83
2023-01-13T17:04:46.953Z,98961.36
2023-01-13T17:08:45.031Z,98956.55
2023-01-13T17:12:43.012Z,98957.48
2023-01-13T17:16:40.925Z,98960.04
2023-01-13T17:20:39.000Z,98963.60
2023-01-13T17:24:37.893Z,98965.87
2023-01-13T17:28:35.914Z,98966.11
2023-01-13T17:32:35.909Z,98969.36
2023-01-13T17:36:33.936Z,98971.95
2023-01-13T17:40:31.916Z,98967.98
2023-01-13T17:44:34.910Z,98974.41
2023-01-13T17:48:32.912Z,98975.24
2023-01-13T17:52:30.989Z,98976.35
2023-01-13T17:56:30.925Z,98979.41
2023-01-13T18:00:28.928Z,98977.75
2023-01-13T18:04:31.849Z,98984.66
2023-01-13T18:08:30.900Z,98980.80
2023-01-13T18:12:28.866Z,98985.66
2023-01-13T18:16:30.456Z,98986.48
2023-01-13T18:20:45.916Z,98993.35
2023-01-13T18:25:00.923Z,98992.41
2023-01-13T18:28:58.803Z,98993.52
2023-01-13T18:32:56.960Z,98991.73
2023-01-13T18:36:55.853Z,98989.64
2023-01-13T18:40:53.832Z,98986.56
2023-01-13T18:44:51.815Z,98984.79
2023-01-13T18:48:49.811Z,98987.73
2023-01-13T18:52:47.879Z,98992.81
2023-01-13T18:56:46.061Z,98989.60
2023-01-13T19:00:43.837Z,98993.94
2023-01-13T19:04:44.116Z,98998.45
2023-01-13T19:08:41.776Z,98997.34
2023-01-13T19:12:40.786Z,99001.62
2023-01-13T19:16:38.749Z,99001.16
2023-01-13T19:20:36.798Z,99001.84
2023-01-13T19:24:34.775Z,99003.65
2023-01-13T19:28:33.159Z,99006.94
2023-01-13T19:32:30.956Z,99011.60
2023-01-13T19:36:28.766Z,99015.14
2023-01-13T19:40:26.719Z,99014.87
2023-01-13T19:44:43.751Z,99009.81
2023-01-13T19:48:41.716Z,99012.30
2023-01-13T19:52:39.770Z,99016.35
2023-01-13T19:56:37.718Z,99017.16
2023-01-13T20:00:35.738Z,99017.88
2023-01-13T20:04:40.672Z,99019.95
2023-01-13T20:08:38.726Z,99022.41
2023-01-13T20:12:36.676Z,99024.15
2023-01-13T20:16:34.905Z,99026.77
2023-01-13T20:20:32.676Z,99029.10
2023-01-13T20:24:32.703Z,99030.81
2023-01-13T20:28:30.656Z,99032.92
2023-01-13T20:32:29.957Z,99034.56
2023-01-13T20:36:45.726Z,99038.66
2023-01-13T20:40:45.803Z,99041.57
2023-01-13T20:44:43.638Z,99041.28
2023-01-13T20:48:42.715Z,99043.87
2023-01-13T20:52:40.711Z,99041.07
2023-01-13T20:56:39.690Z,99039.11
2023-01-13T21:00:37.681Z,99042.35
2023-01-13T21:04:40.043Z,99044.45
2023-01-13T21:08:37.625Z,99048.35
2023-01-13T21:12:53.625Z,99053.03
2023-01-13T21:16:51.604Z,99058.95
2023-01-13T21:20:51.639Z,99060.02
2023-01-13T21:24:50.636Z,99057.17
2023-01-13T21:28:48.616Z,99060.89
2023-01-13T21:32:46.580Z,99058.42
2023-01-13T21:36:44.983Z,99066.27
2023-01-13T21:40:42.586Z,99068.98
2023-01-13T21:44:58.667Z,99072.59
2023-01-13T21:48:58.589Z,99078.10
2023-01-13T21:52:56.550Z,99079.39
2023-01-13T21:56:54.635Z,99080.34
2023-01-13T22:00:56.723Z,99079.48
2023-01-13T22:04:55.584Z,99083.95
2023-01-13T22:08:53.637Z,99081.69
2023-01-13T22:12:51.527Z,99085.08
2023-01-13T22:16:55.551Z,99088.31
2023-01-13T22:20:53.522Z,99094.30
2023-01-13T22:24:51.590Z,99104.28
2023-01-13T22:28:51.847Z,99105.27
2023-01-13T22:32:50.630Z,99106.75
2023-01-13T22:36:49.509Z,99109.45
2023-01-13T22:40:47.623Z,99115.31
2023-01-13T22:44:45.575Z,99119.98
2023-01-13T22:48:43.520Z,99119.21
2023-01-13T22:52:45.594Z,99119.70
2023-01-13T22:56:44.468Z,99122.34
2023-01-13T23:00:43.504Z,99125.20
2023-01-13T23:04:41.590Z,99127.71
2023-01-13T23:08:39.448Z,99135.02
2023-01-13T23:12:38.517Z,99136.70
2023-01-13T23:16:37.525Z,99131.13
2023-01-13T23:20:35.542Z,99135.38
2023-01-13T23:24:35.472Z,99136.14
2023-01-13T23:28:33.483Z,99140.14
2023-01-13T23:32:32.470Z,99141.38
2023-01-13T23:36:38.432Z,99140.94
2023-01-13T23:40:36.382Z,99131.00
2023-01-13T23:44:34.475Z,99131.57
2023-01-13T23:48:32.401Z,99131.96
2023-01-13T23:52:36.632Z,99134.77
2023-01-13T23:56:39.653Z,99144.80
